CDT,Max TemperatureF,Mean TemperatureF,Min TemperatureF,Max Dew PointF,MeanDew PointF,Min DewpointF,Max Humidity, Mean Humidity, Min Humidity, Max Sea Level PressureIn, Mean Sea Level PressureIn, Min Sea Level PressureIn, Max VisibilityMiles, Mean VisibilityMiles, Min VisibilityMiles, Max Wind SpeedMPH, Mean Wind SpeedMPH, Max Gust SpeedMPH,PrecipitationIn, CloudCover, Events, WindDirDegrees
2011-10-1,68,55,42,41,37,32,83,56,28,30.34,30.27,30.17,10,10,10,12,5,17,0.00,0,,52
2011-10-2,72,56,39,39,35,32,76,51,25,30.32,30.26,30.20,10,10,10,8,4,37,0.00,0,,150
2011-10-3,77,59,40,45,39,36,93,59,25,30.27,30.22,30.19,10,10,8,8,3,,0.00,0,,181
2011-10-4,81,64,46,48,43,38,86,56,26,30.29,30.22,30.17,10,10,10,12,6,20,0.00,0,,150
2011-10-5,81,66,50,48,45,41,80,53,25,30.24,30.17,30.11,10,10,10,15,8,18,0.00,0,,149
2011-10-6,83,68,53,53,51,48,83,58,33,30.18,30.13,30.07,10,10,10,21,10,28,0.00,0,,142
2011-10-7,84,72,59,56,52,48,78,55,31,30.21,30.16,30.11,10,10,10,23,13,32,0.00,0,,154
2011-10-8,83,71,58,55,52,50,78,56,34,30.24,30.19,30.15,10,10,10,21,10,25,0.00,0,,146
2011-10-9,81,69,56,57,52,47,93,64,35,30.25,30.18,30.12,10,10,10,18,10,23,0.00,0,,133
2011-10-10,79,68,57,63,54,46,100,75,50,30.14,30.06,29.98,10,10,3,15,7,21,0.19,3,Rain,139
2011-10-11,79,69,58,62,60,57,100,74,48,29.99,29.92,29.84,10,10,7,13,6,17,0.02,3,Rain,157
2011-10-12,71,64,57,60,57,52,100,81,61,29.83,29.72,29.63,10,9,2,24,9,31,0.40,4,Rain-Thunderstorm,190
2011-10-13,72,62,52,57,48,39,100,66,31,29.78,29.72,29.67,10,10,9,26,12,33,0.00,1,,285
2011-10-14,69,59,49,40,36,31,61,45,28,30.02,29.89,29.79,10,9,6,26,11,33,0.00,0,,285
2011-10-15,70,56,42,43,36,33,70,49,28,30.14,30.03,29.90,10,10,9,13,7,17,0.00,0,,243
2011-10-16,79,64,48,53,44,34,66,53,39,30.02,29.91,29.84,10,10,10,24,10,31,0.00,0,,292
2011-10-17,57,48,39,46,39,31,86,62,38,30.02,29.97,29.92,10,9,4,15,7,18,0.27,5,Rain-Thunderstorm,40
2011-10-18,51,47,42,45,39,34,92,73,54,29.95,29.93,29.90,10,10,10,22,11,26,0.04,7,Rain,321
2011-10-19,46,43,40,37,35,33,86,73,60,29.93,29.90,29.87,10,10,10,22,13,26,T,8,Rain,321
2011-10-20,55,46,37,34,31,30,76,59,41,30.07,29.97,29.89,10,10,10,23,12,29,0.00,1,,293
2011-10-21,63,49,34,37,33,28,82,58,34,30.21,30.14,30.09,10,10,5,10,5,15,0.00,0,,265
2011-10-22,72,56,40,45,40,36,86,59,31,30.11,30.07,30.01,10,8,2,10,4,12,0.00,1,,257
2011-10-23,75,62,48,54,46,42,72,57,41,30.02,29.99,29.94,10,10,7,15,8,21,0.00,2,,179
2011-10-24,75,61,47,52,45,40,100,65,29,30.17,30.09,30.00,10,10,10,16,7,20,0.00,0,,205
2011-10-25,84,71,57,56,52,45,77,59,40,30.04,29.88,29.73,10,10,10,33,18,44,0.00,1,,192
2011-10-26,69,57,45,55,46,43,93,75,56,30.01,29.95,29.82,10,9,5,18,9,24,0.04,6,Rain,349
2011-10-27,56,48,40,43,37,31,92,67,41,30.17,30.10,30.01,10,10,10,15,7,20,T,3,Rain,356
2011-10-28,59,46,32,35,28,22,89,57,25,30.22,30.17,30.11,10,10,10,15,5,21,0.00,1,,294
2011-10-29,63,48,33,32,25,21,59,41,23,30.20,30.12,30.03,10,10,10,16,8,20,0.00,0,,212
2011-10-30,64,53,42,37,33,27,66,51,36,30.08,30.03,29.97,10,10,10,29,13,37,T,2,,221
2011-10-31,64,49,34,31,28,25,70,49,27,30.16,30.10,30.06,10,10,10,12,6,15,0.00,0,,222